Terminal Aerodrome Forecast
Issued by NWS Houston/Galveston, TX

Home | Current Version | Previous Version | Text Only | Print | Product List | Glossary On
Versions: 1 2 3 4 5 6 7 8 9 10 11 12 13 14 15 16 17 18 19 20 21 22 23 24 25 26 27 28 29 30
000
FTUS44 KHGX 101725
TAFCLL
TAF
KCLL 101725Z 1018/1118 15006KT P6SM SKC
     FM102100 20012KT P6SM SKC
     FM110000 18006KT P6SM SKC
     FM110900 21006KT P6SM SKC
     FM111500 22010KT P6SM SKC=

USA.gov is the U.S. government's official web portal to all federal, state and local government web resources and services.